sensor_id;sensor_type;location;lat;lon;timestamp;pressure;altitude;pressure_sealevel;temperature;humidity
74045;BME280;62389;51.412;5.436;2024-01-11T00:00:40;103083.31;;;-3.19;72.49
74045;BME280;62389;51.412;5.436;2024-01-11T00:03:06;103073.91;;;-3.20;72.08
74045;BME280;62389;51.412;5.436;2024-01-11T00:05:31;103083.25;;;-3.20;72.39
74045;BME280;62389;51.412;5.436;2024-01-11T00:07:56;103080.59;;;-3.22;72.13
74045;BME280;62389;51.412;5.436;2024-01-11T00:10:22;103083.03;;;-3.25;72.49
74045;BME280;62389;51.412;5.436;2024-01-11T00:12:47;103080.31;;;-3.28;72.03
74045;BME280;62389;51.412;5.436;2024-01-11T00:15:13;103090.56;;;-3.28;71.94
74045;BME280;62389;51.412;5.436;2024-01-11T00:17:38;103089.69;;;-3.28;72.80
74045;BME280;62389;51.412;5.436;2024-01-11T00:20:04;103083.69;;;-3.29;73.08
74045;BME280;62389;51.412;5.436;2024-01-11T00:22:30;103082.66;;;-3.32;72.42
74045;BME280;62389;51.412;5.436;2024-01-11T00:24:55;103075.84;;;-3.32;72.97
74045;BME280;62389;51.412;5.436;2024-01-11T00:27:21;103069.94;;;-3.31;73.91
74045;BME280;62389;51.412;5.436;2024-01-11T00:29:46;103076.72;;;-3.31;73.21
74045;BME280;62389;51.412;5.436;2024-01-11T00:32:12;103073.28;;;-3.32;73.10
74045;BME280;62389;51.412;5.436;2024-01-11T00:34:37;103080.19;;;-3.31;72.96
74045;BME280;62389;51.412;5.436;2024-01-11T00:37:03;103083.53;;;-3.32;72.66
74045;BME280;62389;51.412;5.436;2024-01-11T00:39:29;103076.66;;;-3.33;72.37
74045;BME280;62389;51.412;5.436;2024-01-11T00:41:54;103081.78;;;-3.33;72.83
74045;BME280;62389;51.412;5.436;2024-01-11T00:44:20;103080.03;;;-3.34;74.24
74045;BME280;62389;51.412;5.436;2024-01-11T00:46:45;103085.94;;;-3.35;73.47
74045;BME280;62389;51.412;5.436;2024-01-11T00:49:10;103083.28;;;-3.36;73.33
74045;BME280;62389;51.412;5.436;2024-01-11T00:51:36;103080.66;;;-3.38;73.71
74045;BME280;62389;51.412;5.436;2024-01-11T00:54:01;103081.47;;;-3.39;73.89
74045;BME280;62389;51.412;5.436;2024-01-11T00:56:26;103084.75;;;-3.42;74.52
74045;BME280;62389;51.412;5.436;2024-01-11T00:58:52;103079.56;;;-3.43;75.81
74045;BME280;62389;51.412;5.436;2024-01-11T01:01:18;103081.19;;;-3.45;75.05
74045;BME280;62389;51.412;5.436;2024-01-11T01:03:43;103088.84;;;-3.45;76.10
74045;BME280;62389;51.412;5.436;2024-01-11T01:06:08;103087.09;;;-3.46;76.02
74045;BME280;62389;51.412;5.436;2024-01-11T01:08:34;103079.25;;;-3.49;75.90
74045;BME280;62389;51.412;5.436;2024-01-11T01:10:59;103074.84;;;-3.52;76.36
74045;BME280;62389;51.412;5.436;2024-01-11T01:13:25;103086.78;;;-3.52;77.69
74045;BME280;62389;51.412;5.436;2024-01-11T01:15:50;103091.13;;;-3.51;78.23
74045;BME280;62389;51.412;5.436;2024-01-11T01:18:16;103091.66;;;-3.57;77.99
74045;BME280;62389;51.412;5.436;2024-01-11T01:20:41;103089.59;;;-3.64;78.12
74045;BME280;62389;51.412;5.436;2024-01-11T01:23:06;103096.88;;;-3.72;78.17
74045;BME280;62389;51.412;5.436;2024-01-11T01:25:32;103106.97;;;-3.75;77.77
74045;BME280;62389;51.412;5.436;2024-01-11T01:28:00;103100.09;;;-3.76;78.79
74045;BME280;62389;51.412;5.436;2024-01-11T01:30:26;103104.47;;;-3.73;78.19
74045;BME280;62389;51.412;5.436;2024-01-11T01:32:52;103097.69;;;-3.73;78.71
74045;BME280;62389;51.412;5.436;2024-01-11T01:35:17;103095.06;;;-3.74;78.54
74045;BME280;62389;51.412;5.436;2024-01-11T01:37:43;103100.00;;;-3.77;79.47
74045;BME280;62389;51.412;5.436;2024-01-11T01:40:08;103109.34;;;-3.78;79.08
74045;BME280;62389;51.412;5.436;2024-01-11T01:42:34;103110.16;;;-3.79;78.34
74045;BME280;62389;51.412;5.436;2024-01-11T01:44:59;103114.56;;;-3.76;79.36
74045;BME280;62389;51.412;5.436;2024-01-11T01:47:26;103117.03;;;-3.78;79.85
74045;BME280;62389;51.412;5.436;2024-01-11T01:49:52;103122.78;;;-3.82;80.04
74045;BME280;62389;51.412;5.436;2024-01-11T01:52:19;103120.16;;;-3.83;80.38
74045;BME280;62389;51.412;5.436;2024-01-11T01:54:45;103129.44;;;-3.85;79.15
74045;BME280;62389;51.412;5.436;2024-01-11T01:57:11;103135.44;;;-3.85;79.55
74045;BME280;62389;51.412;5.436;2024-01-11T01:59:38;103133.75;;;-3.84;80.04
74045;BME280;62389;51.412;5.436;2024-01-11T02:02:04;103139.66;;;-3.85;79.61
74045;BME280;62389;51.412;5.436;2024-01-11T02:04:30;103132.94;;;-3.83;79.11
74045;BME280;62389;51.412;5.436;2024-01-11T02:06:57;103140.69;;;-3.82;78.67
74045;BME280;62389;51.412;5.436;2024-01-11T02:09:24;103142.47;;;-3.81;78.58
74045;BME280;62389;51.412;5.436;2024-01-11T02:11:51;103144.22;;;-3.80;78.08
74045;BME280;62389;51.412;5.436;2024-01-11T02:14:18;103142.53;;;-3.79;77.87
74045;BME280;62389;51.412;5.436;2024-01-11T02:16:44;103141.66;;;-3.80;78.58
74045;BME280;62389;51.412;5.436;2024-01-11T02:19:12;103126.31;;;-3.80;78.18
74045;BME280;62389;51.412;5.436;2024-01-11T02:21:38;103123.75;;;-3.80;78.93
74045;BME280;62389;51.412;5.436;2024-01-11T02:24:05;103122.06;;;-3.79;79.79
74045;BME280;62389;51.412;5.436;2024-01-11T02:26:31;103114.97;;;-3.85;79.00
74045;BME280;62389;51.412;5.436;2024-01-11T02:28:57;103113.69;;;-3.93;79.75
74045;BME280;62389;51.412;5.436;2024-01-11T02:31:23;103115.94;;;-3.99;80.02
74045;BME280;62389;51.412;5.436;2024-01-11T02:33:49;103112.25;;;-4.04;82.03
74045;BME280;62389;51.412;5.436;2024-01-11T02:36:14;103115.63;;;-4.05;82.69
74045;BME280;62389;51.412;5.436;2024-01-11T02:38:41;103118.88;;;-4.08;82.23
74045;BME280;62389;51.412;5.436;2024-01-11T02:41:08;103122.16;;;-4.10;81.68
74045;BME280;62389;51.412;5.436;2024-01-11T02:43:33;103129.72;;;-4.12;81.53
74045;BME280;62389;51.412;5.436;2024-01-11T02:46:01;103139.19;;;-4.11;81.86
74045;BME280;62389;51.412;5.436;2024-01-11T02:48:28;103122.16;;;-4.10;82.14
74045;BME280;62389;51.412;5.436;2024-01-11T02:50:54;103135.00;;;-4.09;82.34
74045;BME280;62389;51.412;5.436;2024-01-11T02:53:19;103132.44;;;-4.09;81.58
74045;BME280;62389;51.412;5.436;2024-01-11T02:55:45;103129.81;;;-4.10;81.99
74045;BME280;62389;51.412;5.436;2024-01-11T02:58:10;103124.72;;;-4.10;81.11
74045;BME280;62389;51.412;5.436;2024-01-11T03:00:36;103124.78;;;-4.09;81.06
74045;BME280;62389;51.412;5.436;2024-01-11T03:03:01;103129.03;;;-4.09;81.54
74045;BME280;62389;51.412;5.436;2024-01-11T03:05:26;103126.47;;;-4.09;80.82
74045;BME280;62389;51.412;5.436;2024-01-11T03:07:52;103133.97;;;-4.12;81.00
74045;BME280;62389;51.412;5.436;2024-01-11T03:10:17;103132.22;;;-4.13;81.54
74045;BME280;62389;51.412;5.436;2024-01-11T03:12:42;103121.97;;;-4.13;80.97
74045;BME280;62389;51.412;5.436;2024-01-11T03:15:08;103127.09;;;-4.13;80.88
74045;BME280;62389;51.412;5.436;2024-01-11T03:17:34;103121.03;;;-4.15;81.06
74045;BME280;62389;51.412;5.436;2024-01-11T03:19:59;103123.41;;;-4.19;82.16
74045;BME280;62389;51.412;5.436;2024-01-11T03:22:25;103128.38;;;-4.22;81.58
74045;BME280;62389;51.412;5.436;2024-01-11T03:24:50;103132.53;;;-4.24;81.67
74045;BME280;62389;51.412;5.436;2024-01-11T03:27:15;103131.72;;;-4.23;80.90
74045;BME280;62389;51.412;5.436;2024-01-11T03:29:41;103126.59;;;-4.23;81.46
74045;BME280;62389;51.412;5.436;2024-01-11T03:32:06;103126.59;;;-4.23;81.40
74045;BME280;62389;51.412;5.436;2024-01-11T03:34:31;103129.16;;;-4.23;81.33
74045;BME280;62389;51.412;5.436;2024-01-11T03:36:57;103124.84;;;-4.24;80.71
74045;BME280;62389;51.412;5.436;2024-01-11T03:39:23;103123.09;;;-4.25;80.65
74045;BME280;62389;51.412;5.436;2024-01-11T03:41:48;103122.22;;;-4.25;80.23
74045;BME280;62389;51.412;5.436;2024-01-11T03:44:14;103123.91;;;-4.26;80.20
74045;BME280;62389;51.412;5.436;2024-01-11T03:46:39;103122.91;;;-4.28;80.17
74045;BME280;62389;51.412;5.436;2024-01-11T03:49:04;103127.88;;;-4.31;80.03
74045;BME280;62389;51.412;5.436;2024-01-11T03:51:30;103123.66;;;-4.30;79.96
74045;BME280;62389;51.412;5.436;2024-01-11T03:53:55;103120.22;;;-4.31;80.22
74045;BME280;62389;51.412;5.436;2024-01-11T03:56:20;103113.31;;;-4.32;80.85
74045;BME280;62389;51.412;5.436;2024-01-11T03:58:46;103117.50;;;-4.34;80.95
74045;BME280;62389;51.412;5.436;2024-01-11T04:01:11;103120.66;;;-4.38;82.02
74045;BME280;62389;51.412;5.436;2024-01-11T04:03:37;103126.41;;;-4.42;83.46
74045;BME280;62389;51.412;5.436;2024-01-11T04:06:03;103128.81;;;-4.45;82.72
74045;BME280;62389;51.412;5.436;2024-01-11T04:08:28;103139.84;;;-4.46;82.80
74045;BME280;62389;51.412;5.436;2024-01-11T04:10:54;103137.97;;;-4.49;82.93
74045;BME280;62389;51.412;5.436;2024-01-11T04:13:19;103142.94;;;-4.52;82.93
74045;BME280;62389;51.412;5.436;2024-01-11T04:15:44;103132.53;;;-4.55;82.54
74045;BME280;62389;51.412;5.436;2024-01-11T04:18:10;103133.78;;;-4.63;83.71
74045;BME280;62389;51.412;5.436;2024-01-11T04:20:35;103133.78;;;-4.63;83.56
74045;BME280;62389;51.412;5.436;2024-01-11T04:23:00;103132.91;;;-4.63;83.20
74045;BME280;62389;51.412;5.436;2024-01-11T04:25:26;103139.75;;;-4.62;84.28
74045;BME280;62389;51.412;5.436;2024-01-11T04:27:51;103142.44;;;-4.61;83.18
74045;BME280;62389;51.412;5.436;2024-01-11T04:30:16;103146.00;;;-4.57;83.28
74045;BME280;62389;51.412;5.436;2024-01-11T04:32:42;103156.16;;;-4.59;82.47
74045;BME280;62389;51.412;5.436;2024-01-11T04:35:07;103164.59;;;-4.60;82.02
74045;BME280;62389;51.412;5.436;2024-01-11T04:37:33;103165.50;;;-4.59;82.79
74045;BME280;62389;51.412;5.436;2024-01-11T04:40:00;103163.63;;;-4.62;81.83
74045;BME280;62389;51.412;5.436;2024-01-11T04:42:28;103167.97;;;-4.61;81.88
74045;BME280;62389;51.412;5.436;2024-01-11T04:44:54;103175.63;;;-4.61;81.23
74045;BME280;62389;51.412;5.436;2024-01-11T04:47:19;103173.06;;;-4.61;81.44
74045;BME280;62389;51.412;5.436;2024-01-11T04:49:44;103186.53;;;-4.63;81.96
74045;BME280;62389;51.412;5.436;2024-01-11T04:52:10;103182.03;;;-4.68;81.86
74045;BME280;62389;51.412;5.436;2024-01-11T04:54:35;103175.91;;;-4.71;81.74
74045;BME280;62389;51.412;5.436;2024-01-11T04:57:01;103188.69;;;-4.71;81.54
74045;BME280;62389;51.412;5.436;2024-01-11T04:59:26;103180.13;;;-4.72;81.33
74045;BME280;62389;51.412;5.436;2024-01-11T05:01:52;103168.13;;;-4.73;81.05
74045;BME280;62389;51.412;5.436;2024-01-11T05:04:17;103175.66;;;-4.76;82.27
74045;BME280;62389;51.412;5.436;2024-01-11T05:06:42;103174.66;;;-4.78;81.74
74045;BME280;62389;51.412;5.436;2024-01-11T05:09:08;103186.75;;;-4.75;81.66
74045;BME280;62389;51.412;5.436;2024-01-11T05:11:33;103180.81;;;-4.74;81.66
74045;BME280;62389;51.412;5.436;2024-01-11T05:13:58;103179.16;;;-4.74;81.87
74045;BME280;62389;51.412;5.436;2024-01-11T05:16:28;103188.41;;;-4.76;82.08
74045;BME280;62389;51.412;5.436;2024-01-11T05:18:55;103191.03;;;-4.74;81.69
74045;BME280;62389;51.412;5.436;2024-01-11T05:21:21;103188.56;;;-4.73;81.72
74045;BME280;62389;51.412;5.436;2024-01-11T05:23:46;103180.13;;;-4.72;82.79
74045;BME280;62389;51.412;5.436;2024-01-11T05:26:14;103190.34;;;-4.72;82.66
74045;BME280;62389;51.412;5.436;2024-01-11T05:28:40;103191.91;;;-4.74;82.50
74045;BME280;62389;51.412;5.436;2024-01-11T05:31:15;103196.94;;;-4.75;82.08
74045;BME280;62389;51.412;5.436;2024-01-11T05:33:41;103197.81;;;-4.75;81.91
74045;BME280;62389;51.412;5.436;2024-01-11T05:36:07;103199.50;;;-4.75;81.77
74045;BME280;62389;51.412;5.436;2024-01-11T05:38:33;103198.63;;;-4.76;81.84
74045;BME280;62389;51.412;5.436;2024-01-11T05:40:59;103204.53;;;-4.77;82.51
74045;BME280;62389;51.412;5.436;2024-01-11T05:43:24;103211.28;;;-4.77;82.05
74045;BME280;62389;51.412;5.436;2024-01-11T05:45:50;103207.69;;;-4.81;82.76
74045;BME280;62389;51.412;5.436;2024-01-11T05:48:16;103221.94;;;-4.84;82.77
74045;BME280;62389;51.412;5.436;2024-01-11T05:50:42;103234.72;;;-4.84;82.30
74045;BME280;62389;51.412;5.436;2024-01-11T05:53:08;103235.50;;;-4.85;82.71
74045;BME280;62389;51.412;5.436;2024-01-11T05:55:33;103233.75;;;-4.86;82.91
74045;BME280;62389;51.412;5.436;2024-01-11T05:57:59;103231.91;;;-4.89;82.62
74045;BME280;62389;51.412;5.436;2024-01-11T06:00:24;103226.78;;;-4.89;82.45
74045;BME280;62389;51.412;5.436;2024-01-11T06:02:50;103222.41;;;-4.91;82.83
74045;BME280;62389;51.412;5.436;2024-01-11T06:05:15;103219.06;;;-4.90;83.85
74045;BME280;62389;51.412;5.436;2024-01-11T06:07:41;103221.50;;;-4.92;84.68
74045;BME280;62389;51.412;5.436;2024-01-11T06:10:07;103223.97;;;-4.93;84.05
74045;BME280;62389;51.412;5.436;2024-01-11T06:12:34;103227.31;;;-4.95;83.87
74045;BME280;62389;51.412;5.436;2024-01-11T06:15:01;103232.50;;;-4.93;84.25
74045;BME280;62389;51.412;5.436;2024-01-11T06:17:27;103239.28;;;-4.93;84.01
74045;BME280;62389;51.412;5.436;2024-01-11T06:19:52;103242.63;;;-4.95;85.00
74045;BME280;62389;51.412;5.436;2024-01-11T06:22:18;103248.41;;;-4.97;84.75
74045;BME280;62389;51.412;5.436;2024-01-11T06:24:43;103256.09;;;-4.97;84.54
74045;BME280;62389;51.412;5.436;2024-01-11T06:27:09;103263.75;;;-4.97;84.80
74045;BME280;62389;51.412;5.436;2024-01-11T06:29:35;103265.53;;;-4.96;83.86
74045;BME280;62389;51.412;5.436;2024-01-11T06:32:00;103252.66;;;-4.98;84.91
74045;BME280;62389;51.412;5.436;2024-01-11T06:34:25;103255.72;;;-5.03;84.48
74045;BME280;62389;51.412;5.436;2024-01-11T06:36:50;103253.78;;;-5.07;85.20
74045;BME280;62389;51.412;5.436;2024-01-11T06:39:16;103259.53;;;-5.11;84.65
74045;BME280;62389;51.412;5.436;2024-01-11T06:41:41;103262.16;;;-5.10;85.15
74045;BME280;62389;51.412;5.436;2024-01-11T06:44:07;103256.34;;;-5.07;84.74
74045;BME280;62389;51.412;5.436;2024-01-11T06:46:32;103242.41;;;-5.12;84.40
74045;BME280;62389;51.412;5.436;2024-01-11T06:48:58;103244.47;;;-5.22;84.78
74045;BME280;62389;51.412;5.436;2024-01-11T06:51:23;103245.84;;;-5.27;85.61
74045;BME280;62389;51.412;5.436;2024-01-11T06:53:49;103246.47;;;-5.31;85.75
74045;BME280;62389;51.412;5.436;2024-01-11T06:56:19;103237.53;;;-5.37;86.23
74045;BME280;62389;51.412;5.436;2024-01-11T06:58:46;103252.84;;;-5.37;87.00
74045;BME280;62389;51.412;5.436;2024-01-11T07:01:12;103245.09;;;-5.39;87.37
74045;BME280;62389;51.412;5.436;2024-01-11T07:03:38;103256.78;;;-5.42;87.89
74045;BME280;62389;51.412;5.436;2024-01-11T07:06:04;103268.66;;;-5.43;87.74
74045;BME280;62389;51.412;5.436;2024-01-11T07:08:31;103265.34;;;-5.42;88.79
74045;BME280;62389;51.412;5.436;2024-01-11T07:10:58;103269.66;;;-5.41;87.79
74045;BME280;62389;51.412;5.436;2024-01-11T07:13:23;103275.63;;;-5.40;88.58
74045;BME280;62389;51.412;5.436;2024-01-11T07:15:48;103266.22;;;-5.41;87.64
74045;BME280;62389;51.412;5.436;2024-01-11T07:18:14;103267.50;;;-5.48;87.55
74045;BME280;62389;51.412;5.436;2024-01-11T07:20:40;103258.59;;;-5.55;87.85
74045;BME280;62389;51.412;5.436;2024-01-11T07:23:05;103264.59;;;-5.54;88.60
74045;BME280;62389;51.412;5.436;2024-01-11T07:25:31;103282.44;;;-5.54;89.06
74045;BME280;62389;51.412;5.436;2024-01-11T07:27:57;103284.19;;;-5.53;88.94
74045;BME280;62389;51.412;5.436;2024-01-11T07:30:22;103283.59;;;-5.49;88.71
74045;BME280;62389;51.412;5.436;2024-01-11T07:32:47;103291.44;;;-5.46;89.46
74045;BME280;62389;51.412;5.436;2024-01-11T07:35:13;103285.63;;;-5.43;89.04
74045;BME280;62389;51.412;5.436;2024-01-11T07:37:39;103274.63;;;-5.42;90.02
74045;BME280;62389;51.412;5.436;2024-01-11T07:40:06;103274.47;;;-5.45;89.70
74045;BME280;62389;51.412;5.436;2024-01-11T07:42:38;103275.94;;;-5.49;89.89
74045;BME280;62389;51.412;5.436;2024-01-11T07:45:05;103284.59;;;-5.47;89.82
74045;BME280;62389;51.412;5.436;2024-01-11T07:47:31;103283.00;;;-5.45;89.23
74045;BME280;62389;51.412;5.436;2024-01-11T07:49:57;103287.50;;;-5.41;88.85
74045;BME280;62389;51.412;5.436;2024-01-11T07:52:22;103284.38;;;-5.37;88.76
74045;BME280;62389;51.412;5.436;2024-01-11T07:54:47;103288.66;;;-5.36;89.11
74045;BME280;62389;51.412;5.436;2024-01-11T07:57:13;103284.38;;;-5.37;89.73
74045;BME280;62389;51.412;5.436;2024-01-11T07:59:39;103288.47;;;-5.39;89.54
74045;BME280;62389;51.412;5.436;2024-01-11T08:02:04;103290.75;;;-5.43;88.74
74045;BME280;62389;51.412;5.436;2024-01-11T08:04:31;103286.94;;;-5.50;89.05
74045;BME280;62389;51.412;5.436;2024-01-11T08:06:56;103296.19;;;-5.52;90.22
74045;BME280;62389;51.412;5.436;2024-01-11T08:09:25;103302.31;;;-5.49;90.65
74045;BME280;62389;51.412;5.436;2024-01-11T08:11:51;103299.69;;;-5.50;90.75
74045;BME280;62389;51.412;5.436;2024-01-11T08:14:17;103307.34;;;-5.50;90.81
74045;BME280;62389;51.412;5.436;2024-01-11T08:16:43;103295.28;;;-5.53;90.02
74045;BME280;62389;51.412;5.436;2024-01-11T08:19:08;103290.16;;;-5.53;90.86
74045;BME280;62389;51.412;5.436;2024-01-11T08:21:35;103289.50;;;-5.50;91.08
74045;BME280;62389;51.412;5.436;2024-01-11T08:24:01;103285.34;;;-5.48;91.18
74045;BME280;62389;51.412;5.436;2024-01-11T08:26:28;103276.16;;;-5.46;90.67
74045;BME280;62389;51.412;5.436;2024-01-11T08:28:53;103266.63;;;-5.49;90.13
74045;BME280;62389;51.412;5.436;2024-01-11T08:31:19;103262.41;;;-5.48;90.94
74045;BME280;62389;51.412;5.436;2024-01-11T08:33:44;103254.16;;;-5.44;91.29
74045;BME280;62389;51.412;5.436;2024-01-11T08:36:10;103263.84;;;-5.38;92.13
74045;BME280;62389;51.412;5.436;2024-01-11T08:38:36;103262.66;;;-5.30;93.37
74045;BME280;62389;51.412;5.436;2024-01-11T08:41:02;103266.44;;;-5.24;93.03
74045;BME280;62389;51.412;5.436;2024-01-11T08:43:28;103272.69;;;-5.18;92.38
74045;BME280;62389;51.412;5.436;2024-01-11T08:45:54;103277.19;;;-5.14;93.18
74045;BME280;62389;51.412;5.436;2024-01-11T08:48:20;103279.31;;;-5.07;92.80
74045;BME280;62389;51.412;5.436;2024-01-11T08:50:46;103284.88;;;-5.00;92.97
74045;BME280;62389;51.412;5.436;2024-01-11T08:53:11;103286.97;;;-4.92;92.22
74045;BME280;62389;51.412;5.436;2024-01-11T08:55:36;103278.03;;;-4.86;92.33
74045;BME280;62389;51.412;5.436;2024-01-11T08:58:02;103276.44;;;-4.84;92.87
74045;BME280;62389;51.412;5.436;2024-01-11T09:00:28;103270.66;;;-4.81;92.16
74045;BME280;62389;51.412;5.436;2024-01-11T09:02:53;103281.13;;;-4.77;92.45
74045;BME280;62389;51.412;5.436;2024-01-11T09:05:19;103286.38;;;-4.74;92.18
74045;BME280;62389;51.412;5.436;2024-01-11T09:07:44;103294.25;;;-4.71;91.94
74045;BME280;62389;51.412;5.436;2024-01-11T09:10:10;103290.28;;;-4.65;91.28
74045;BME280;62389;51.412;5.436;2024-01-11T09:12:38;103302.53;;;-4.60;90.71
74045;BME280;62389;51.412;5.436;2024-01-11T09:15:04;103311.13;;;-4.58;90.11
74045;BME280;62389;51.412;5.436;2024-01-11T09:17:29;103304.47;;;-4.56;90.83
74045;BME280;62389;51.412;5.436;2024-01-11T09:19:55;103304.47;;;-4.56;91.83
74045;BME280;62389;51.412;5.436;2024-01-11T09:22:20;103310.53;;;-4.54;91.77
74045;BME280;62389;51.412;5.436;2024-01-11T09:24:46;103313.34;;;-4.49;91.10
74045;BME280;62389;51.412;5.436;2024-01-11T09:27:11;103312.75;;;-4.45;90.08
74045;BME280;62389;51.412;5.436;2024-01-11T09:29:44;103313.69;;;-4.43;89.70
74045;BME280;62389;51.412;5.436;2024-01-11T09:32:10;103322.41;;;-4.39;89.71
74045;BME280;62389;51.412;5.436;2024-01-11T09:34:36;103321.00;;;-4.34;89.24
74045;BME280;62389;51.412;5.436;2024-01-11T09:37:01;103317.72;;;-4.32;88.33
74045;BME280;62389;51.412;5.436;2024-01-11T09:39:26;103323.97;;;-4.27;88.47
74045;BME280;62389;51.412;5.436;2024-01-11T09:42:03;103323.28;;;-4.24;88.22
74045;BME280;62389;51.412;5.436;2024-01-11T09:44:32;103321.00;;;-4.20;88.21
74045;BME280;62389;51.412;5.436;2024-01-11T09:47:00;103333.25;;;-4.14;87.45
74045;BME280;62389;51.412;5.436;2024-01-11T09:49:27;103339.41;;;-4.10;87.59
74045;BME280;62389;51.412;5.436;2024-01-11T09:51:55;103346.34;;;-4.08;87.55
74045;BME280;62389;51.412;5.436;2024-01-11T09:54:23;103349.97;;;-4.04;88.10
74045;BME280;62389;51.412;5.436;2024-01-11T09:56:50;103359.41;;;-4.03;88.14
74045;BME280;62389;51.412;5.436;2024-01-11T09:59:19;103363.09;;;-3.98;87.87
74045;BME280;62389;51.412;5.436;2024-01-11T10:01:47;103362.56;;;-3.93;88.09
74045;BME280;62389;51.412;5.436;2024-01-11T10:04:14;103356.91;;;-3.87;87.55
74045;BME280;62389;51.412;5.436;2024-01-11T10:06:41;103359.81;;;-3.81;87.09
74045;BME280;62389;51.412;5.436;2024-01-11T10:09:07;103356.63;;;-3.77;87.31
74045;BME280;62389;51.412;5.436;2024-01-11T10:11:32;103356.88;;;-3.72;87.41
74045;BME280;62389;51.412;5.436;2024-01-11T10:13:59;103353.63;;;-3.70;87.13
74045;BME280;62389;51.412;5.436;2024-01-11T10:16:27;103363.22;;;-3.66;86.31
74045;BME280;62389;51.412;5.436;2024-01-11T10:18:56;103358.38;;;-3.61;86.16
74045;BME280;62389;51.412;5.436;2024-01-11T10:21:23;103356.94;;;-3.56;85.67
74045;BME280;62389;51.412;5.436;2024-01-11T10:23:49;103351.16;;;-3.52;86.19
74045;BME280;62389;51.412;5.436;2024-01-11T10:26:15;103356.63;;;-3.46;85.93
74045;BME280;62389;51.412;5.436;2024-01-11T10:28:44;103355.28;;;-3.39;85.67
74045;BME280;62389;51.412;5.436;2024-01-11T10:31:09;103358.16;;;-3.33;85.34
74045;BME280;62389;51.412;5.436;2024-01-11T10:33:35;103352.41;;;-3.29;84.73
74045;BME280;62389;51.412;5.436;2024-01-11T10:36:01;103355.28;;;-3.23;85.00
74045;BME280;62389;51.412;5.436;2024-01-11T10:38:26;103353.03;;;-3.17;84.45
74045;BME280;62389;51.412;5.436;2024-01-11T10:40:55;103344.84;;;-3.11;84.23
74045;BME280;62389;51.412;5.436;2024-01-11T10:43:22;103357.06;;;-3.05;84.10
74045;BME280;62389;51.412;5.436;2024-01-11T10:45:52;103351.28;;;-3.01;83.20
74045;BME280;62389;51.412;5.436;2024-01-11T10:48:24;103365.22;;;-2.96;83.53
74045;BME280;62389;51.412;5.436;2024-01-11T10:50:57;103362.19;;;-2.89;83.27
74045;BME280;62389;51.412;5.436;2024-01-11T10:53:45;103362.50;;;-2.83;83.09
74045;BME280;62389;51.412;5.436;2024-01-11T10:56:12;103362.81;;;-2.77;83.28
74045;BME280;62389;51.412;5.436;2024-01-11T10:58:41;103355.47;;;-2.71;82.35
74045;BME280;62389;51.412;5.436;2024-01-11T11:01:08;103361.69;;;-2.66;81.25
74045;BME280;62389;51.412;5.436;2024-01-11T11:03:34;103363.75;;;-2.58;82.44
74045;BME280;62389;51.412;5.436;2024-01-11T11:06:01;103355.56;;;-2.51;81.80
74045;BME280;62389;51.412;5.436;2024-01-11T11:08:27;103361.00;;;-2.45;79.85
74045;BME280;62389;51.412;5.436;2024-01-11T11:11:02;103368.19;;;-2.38;80.29
74045;BME280;62389;51.412;5.436;2024-01-11T11:13:31;103366.09;;;-2.29;78.80
74045;BME280;62389;51.412;5.436;2024-01-11T11:15:57;103359.66;;;-2.21;78.77
74045;BME280;62389;51.412;5.436;2024-01-11T11:18:23;103364.44;;;-2.11;76.72
74045;BME280;62389;51.412;5.436;2024-01-11T11:20:49;103361.88;;;-1.93;76.80
74045;BME280;62389;51.412;5.436;2024-01-11T11:23:16;103361.50;;;-1.08;76.56
74045;BME280;62389;51.412;5.436;2024-01-11T11:25:48;103361.44;;;-0.10;72.30
74045;BME280;62389;51.412;5.436;2024-01-11T11:28:17;103352.59;;;0.72;72.26
74045;BME280;62389;51.412;5.436;2024-01-11T11:30:44;103346.69;;;2.27;67.60
74045;BME280;62389;51.412;5.436;2024-01-11T11:33:20;103354.50;;;3.19;64.04
74045;BME280;62389;51.412;5.436;2024-01-11T11:35:47;103366.78;;;3.26;60.73
74045;BME280;62389;51.412;5.436;2024-01-11T11:38:24;103371.78;;;2.90;59.52
74045;BME280;62389;51.412;5.436;2024-01-11T11:40:52;103372.19;;;2.45;58.73
74045;BME280;62389;51.412;5.436;2024-01-11T11:43:18;103365.88;;;2.08;60.02
74045;BME280;62389;51.412;5.436;2024-01-11T11:45:49;103363.56;;;1.91;60.84
74045;BME280;62389;51.412;5.436;2024-01-11T11:51:12;103376.13;;;1.54;59.92
74045;BME280;62389;51.412;5.436;2024-01-11T11:53:39;103375.81;;;1.45;60.74
74045;BME280;62389;51.412;5.436;2024-01-11T11:56:05;103374.91;;;1.43;60.10
74045;BME280;62389;51.412;5.436;2024-01-11T11:58:32;103369.03;;;1.47;60.66
74045;BME280;62389;51.412;5.436;2024-01-11T12:00:59;103371.28;;;1.64;62.29
74045;BME280;62389;51.412;5.436;2024-01-11T12:03:32;103359.75;;;2.05;62.03
74045;BME280;62389;51.412;5.436;2024-01-11T12:05:58;103366.72;;;2.93;59.08
74045;BME280;62389;51.412;5.436;2024-01-11T12:08:24;103346.63;;;4.17;56.76
74045;BME280;62389;51.412;5.436;2024-01-11T12:10:50;103343.66;;;5.76;53.21
74045;BME280;62389;51.412;5.436;2024-01-11T12:13:16;103344.47;;;6.94;52.04
74045;BME280;62389;51.412;5.436;2024-01-11T12:15:41;103340.41;;;8.26;48.38
74045;BME280;62389;51.412;5.436;2024-01-11T12:18:07;103341.72;;;9.82;45.24
74045;BME280;62389;51.412;5.436;2024-01-11T12:20:35;103328.97;;;11.28;42.01
74045;BME280;62389;51.412;5.436;2024-01-11T12:23:01;103321.97;;;12.29;37.76
74045;BME280;62389;51.412;5.436;2024-01-11T12:25:28;103322.97;;;12.89;35.97
74045;BME280;62389;51.412;5.436;2024-01-11T12:27:53;103310.13;;;13.31;35.30
74045;BME280;62389;51.412;5.436;2024-01-11T12:30:22;103302.41;;;13.17;35.15
74045;BME280;62389;51.412;5.436;2024-01-11T12:32:49;103311.66;;;12.86;34.63
74045;BME280;62389;51.412;5.436;2024-01-11T12:35:15;103301.63;;;12.51;36.14
74045;BME280;62389;51.412;5.436;2024-01-11T12:37:40;103293.31;;;12.12;35.17
74045;BME280;62389;51.412;5.436;2024-01-11T12:40:06;103304.31;;;11.57;35.91
74045;BME280;62389;51.412;5.436;2024-01-11T12:42:35;103304.81;;;10.89;37.91
74045;BME280;62389;51.412;5.436;2024-01-11T12:45:01;103300.47;;;10.78;36.95
74045;BME280;62389;51.412;5.436;2024-01-11T12:47:26;103299.13;;;11.51;37.07